sensor_id;sensor_type;location;lat;lon;timestamp;P1;durP1;ratioP1;P2;durP2;ratioP2
55800;SDS011;41730;51.960;20.158;2023-05-07T00:00:56;11.30;;;6.40;;
55800;SDS011;41730;51.960;20.158;2023-05-07T00:03:28;12.30;;;6.80;;
55800;SDS011;41730;51.960;20.158;2023-05-07T00:06:00;13.60;;;6.30;;
55800;SDS011;41730;51.960;20.158;2023-05-07T00:08:32;13.30;;;6.10;;
55800;SDS011;41730;51.960;20.158;2023-05-07T00:11:03;15.10;;;6.60;;
55800;SDS011;41730;51.960;20.158;2023-05-07T00:13:35;11.40;;;6.10;;
55800;SDS011;41730;51.960;20.158;2023-05-07T00:16:07;11.60;;;6.80;;
55800;SDS011;41730;51.960;20.158;2023-05-07T00:18:38;12.50;;;7.10;;
55800;SDS011;41730;51.960;20.158;2023-05-07T00:21:10;14.20;;;7.50;;
55800;SDS011;41730;51.960;20.158;2023-05-07T00:23:41;12.70;;;7.10;;
55800;SDS011;41730;51.960;20.158;2023-05-07T00:26:13;13.00;;;6.80;;
55800;SDS011;41730;51.960;20.158;2023-05-07T00:28:45;13.20;;;6.40;;
55800;SDS011;41730;51.960;20.158;2023-05-07T00:31:16;12.40;;;6.60;;
55800;SDS011;41730;51.960;20.158;2023-05-07T00:33:48;15.50;;;6.70;;
55800;SDS011;41730;51.960;20.158;2023-05-07T00:36:20;10.00;;;5.90;;
55800;SDS011;41730;51.960;20.158;2023-05-07T00:38:53;13.30;;;5.90;;
55800;SDS011;41730;51.960;20.158;2023-05-07T00:41:26;11.70;;;6.30;;
55800;SDS011;41730;51.960;20.158;2023-05-07T00:43:58;14.60;;;6.40;;
55800;SDS011;41730;51.960;20.158;2023-05-07T00:46:30;12.30;;;6.50;;
55800;SDS011;41730;51.960;20.158;2023-05-07T00:49:02;12.00;;;6.40;;
55800;SDS011;41730;51.960;20.158;2023-05-07T00:51:34;12.30;;;6.20;;
55800;SDS011;41730;51.960;20.158;2023-05-07T00:54:06;12.00;;;6.50;;
55800;SDS011;41730;51.960;20.158;2023-05-07T00:56:38;10.90;;;6.20;;
55800;SDS011;41730;51.960;20.158;2023-05-07T00:59:10;9.30;;;5.70;;
55800;SDS011;41730;51.960;20.158;2023-05-07T01:01:42;10.50;;;5.70;;
55800;SDS011;41730;51.960;20.158;2023-05-07T01:04:13;10.90;;;5.70;;
55800;SDS011;41730;51.960;20.158;2023-05-07T01:06:45;11.50;;;6.50;;
55800;SDS011;41730;51.960;20.158;2023-05-07T01:09:19;11.00;;;5.90;;
55800;SDS011;41730;51.960;20.158;2023-05-07T01:11:51;14.10;;;5.80;;
55800;SDS011;41730;51.960;20.158;2023-05-07T01:14:25;11.10;;;6.40;;
55800;SDS011;41730;51.960;20.158;2023-05-07T01:16:57;9.90;;;5.80;;
55800;SDS011;41730;51.960;20.158;2023-05-07T01:19:31;11.30;;;5.50;;
55800;SDS011;41730;51.960;20.158;2023-05-07T01:22:04;13.80;;;5.90;;
55800;SDS011;41730;51.960;20.158;2023-05-07T01:24:39;11.70;;;6.30;;
55800;SDS011;41730;51.960;20.158;2023-05-07T01:27:12;10.10;;;6.10;;
55800;SDS011;41730;51.960;20.158;2023-05-07T01:29:43;13.00;;;6.70;;
55800;SDS011;41730;51.960;20.158;2023-05-07T01:32:14;11.10;;;6.50;;
55800;SDS011;41730;51.960;20.158;2023-05-07T01:34:51;9.80;;;5.70;;
55800;SDS011;41730;51.960;20.158;2023-05-07T01:37:24;12.10;;;6.50;;
55800;SDS011;41730;51.960;20.158;2023-05-07T01:39:56;11.70;;;6.20;;
55800;SDS011;41730;51.960;20.158;2023-05-07T01:42:28;11.60;;;6.00;;
55800;SDS011;41730;51.960;20.158;2023-05-07T01:45:00;9.80;;;6.10;;
55800;SDS011;41730;51.960;20.158;2023-05-07T01:47:32;10.40;;;5.90;;
55800;SDS011;41730;51.960;20.158;2023-05-07T01:50:07;10.80;;;5.90;;
55800;SDS011;41730;51.960;20.158;2023-05-07T01:52:39;9.80;;;5.90;;
55800;SDS011;41730;51.960;20.158;2023-05-07T01:55:10;8.60;;;5.40;;
55800;SDS011;41730;51.960;20.158;2023-05-07T01:57:42;8.20;;;5.50;;
55800;SDS011;41730;51.960;20.158;2023-05-07T02:00:14;10.30;;;5.50;;
55800;SDS011;41730;51.960;20.158;2023-05-07T02:02:47;12.90;;;6.00;;
55800;SDS011;41730;51.960;20.158;2023-05-07T02:05:20;8.30;;;5.20;;
55800;SDS011;41730;51.960;20.158;2023-05-07T02:07:52;7.70;;;5.30;;
55800;SDS011;41730;51.960;20.158;2023-05-07T02:10:24;11.40;;;5.10;;
55800;SDS011;41730;51.960;20.158;2023-05-07T02:12:55;11.70;;;5.30;;
55800;SDS011;41730;51.960;20.158;2023-05-07T02:15:27;9.60;;;5.50;;
55800;SDS011;41730;51.960;20.158;2023-05-07T02:17:59;11.10;;;5.50;;
55800;SDS011;41730;51.960;20.158;2023-05-07T02:20:32;12.90;;;5.60;;
55800;SDS011;41730;51.960;20.158;2023-05-07T02:23:04;9.10;;;5.10;;
55800;SDS011;41730;51.960;20.158;2023-05-07T02:25:35;8.70;;;5.50;;
55800;SDS011;41730;51.960;20.158;2023-05-07T02:28:07;8.70;;;5.30;;
55800;SDS011;41730;51.960;20.158;2023-05-07T02:30:38;9.50;;;5.40;;
55800;SDS011;41730;51.960;20.158;2023-05-07T02:33:10;9.80;;;5.10;;
55800;SDS011;41730;51.960;20.158;2023-05-07T02:35:42;7.90;;;5.00;;
55800;SDS011;41730;51.960;20.158;2023-05-07T02:38:13;9.40;;;4.90;;
55800;SDS011;41730;51.960;20.158;2023-05-07T02:40:45;11.70;;;5.10;;
55800;SDS011;41730;51.960;20.158;2023-05-07T02:43:16;9.00;;;4.70;;
55800;SDS011;41730;51.960;20.158;2023-05-07T02:45:48;9.00;;;5.40;;
55800;SDS011;41730;51.960;20.158;2023-05-07T02:48:29;8.80;;;5.40;;
55800;SDS011;41730;51.960;20.158;2023-05-07T02:51:00;10.30;;;5.20;;
55800;SDS011;41730;51.960;20.158;2023-05-07T02:53:33;11.30;;;6.00;;
55800;SDS011;41730;51.960;20.158;2023-05-07T02:56:05;14.20;;;5.60;;
55800;SDS011;41730;51.960;20.158;2023-05-07T02:58:38;10.20;;;5.60;;
55800;SDS011;41730;51.960;20.158;2023-05-07T03:01:10;8.80;;;5.40;;
55800;SDS011;41730;51.960;20.158;2023-05-07T03:03:42;11.40;;;5.90;;
55800;SDS011;41730;51.960;20.158;2023-05-07T03:06:15;8.70;;;5.30;;
55800;SDS011;41730;51.960;20.158;2023-05-07T03:08:47;9.90;;;5.50;;
55800;SDS011;41730;51.960;20.158;2023-05-07T03:11:19;11.10;;;6.60;;
55800;SDS011;41730;51.960;20.158;2023-05-07T03:13:50;10.00;;;6.40;;
55800;SDS011;41730;51.960;20.158;2023-05-07T03:16:22;7.90;;;5.40;;
55800;SDS011;41730;51.960;20.158;2023-05-07T03:18:54;9.30;;;5.60;;
55800;SDS011;41730;51.960;20.158;2023-05-07T03:21:25;9.30;;;5.60;;
55800;SDS011;41730;51.960;20.158;2023-05-07T03:23:57;10.20;;;5.70;;
55800;SDS011;41730;51.960;20.158;2023-05-07T03:26:28;8.70;;;5.90;;
55800;SDS011;41730;51.960;20.158;2023-05-07T03:29:00;7.50;;;5.30;;
55800;SDS011;41730;51.960;20.158;2023-05-07T03:31:31;9.10;;;6.10;;
55800;SDS011;41730;51.960;20.158;2023-05-07T03:34:03;9.00;;;5.30;;
55800;SDS011;41730;51.960;20.158;2023-05-07T03:36:35;8.70;;;5.20;;
55800;SDS011;41730;51.960;20.158;2023-05-07T03:39:06;8.00;;;4.90;;
55800;SDS011;41730;51.960;20.158;2023-05-07T03:41:38;6.20;;;4.40;;
55800;SDS011;41730;51.960;20.158;2023-05-07T03:44:10;8.40;;;5.10;;
55800;SDS011;41730;51.960;20.158;2023-05-07T03:46:42;8.90;;;5.40;;
55800;SDS011;41730;51.960;20.158;2023-05-07T03:49:18;11.00;;;4.80;;
55800;SDS011;41730;51.960;20.158;2023-05-07T03:51:53;8.50;;;5.20;;
55800;SDS011;41730;51.960;20.158;2023-05-07T03:54:30;8.00;;;5.00;;
55800;SDS011;41730;51.960;20.158;2023-05-07T03:57:05;8.70;;;5.20;;
55800;SDS011;41730;51.960;20.158;2023-05-07T03:59:36;7.50;;;5.00;;
55800;SDS011;41730;51.960;20.158;2023-05-07T04:02:08;9.00;;;4.50;;
55800;SDS011;41730;51.960;20.158;2023-05-07T04:04:40;8.20;;;5.20;;
55800;SDS011;41730;51.960;20.158;2023-05-07T04:07:11;7.50;;;5.00;;
55800;SDS011;41730;51.960;20.158;2023-05-07T04:09:43;8.00;;;5.00;;
55800;SDS011;41730;51.960;20.158;2023-05-07T04:12:14;8.20;;;4.80;;
55800;SDS011;41730;51.960;20.158;2023-05-07T04:14:46;7.00;;;4.60;;
55800;SDS011;41730;51.960;20.158;2023-05-07T04:17:18;8.00;;;5.00;;
55800;SDS011;41730;51.960;20.158;2023-05-07T04:19:50;7.80;;;5.00;;
55800;SDS011;41730;51.960;20.158;2023-05-07T04:22:21;6.50;;;4.50;;
55800;SDS011;41730;51.960;20.158;2023-05-07T04:24:53;6.30;;;4.50;;
55800;SDS011;41730;51.960;20.158;2023-05-07T04:27:25;7.00;;;4.90;;
55800;SDS011;41730;51.960;20.158;2023-05-07T04:29:56;7.00;;;4.50;;
55800;SDS011;41730;51.960;20.158;2023-05-07T04:32:28;6.50;;;4.90;;
55800;SDS011;41730;51.960;20.158;2023-05-07T04:35:00;7.10;;;4.40;;
55800;SDS011;41730;51.960;20.158;2023-05-07T04:37:32;9.90;;;4.80;;
55800;SDS011;41730;51.960;20.158;2023-05-07T04:40:05;6.40;;;4.30;;
55800;SDS011;41730;51.960;20.158;2023-05-07T04:42:38;6.40;;;4.10;;
55800;SDS011;41730;51.960;20.158;2023-05-07T04:45:11;7.00;;;3.70;;
55800;SDS011;41730;51.960;20.158;2023-05-07T04:47:43;7.10;;;4.30;;
55800;SDS011;41730;51.960;20.158;2023-05-07T04:50:14;6.80;;;4.80;;
55800;SDS011;41730;51.960;20.158;2023-05-07T04:52:47;10.00;;;4.60;;
55800;SDS011;41730;51.960;20.158;2023-05-07T04:55:19;5.90;;;4.50;;
55800;SDS011;41730;51.960;20.158;2023-05-07T04:57:51;6.60;;;5.00;;
55800;SDS011;41730;51.960;20.158;2023-05-07T05:00:23;6.00;;;4.20;;
55800;SDS011;41730;51.960;20.158;2023-05-07T05:02:55;6.20;;;4.00;;
55800;SDS011;41730;51.960;20.158;2023-05-07T05:05:26;6.70;;;4.30;;
55800;SDS011;41730;51.960;20.158;2023-05-07T05:07:58;6.70;;;4.40;;
55800;SDS011;41730;51.960;20.158;2023-05-07T05:10:30;6.10;;;3.80;;
55800;SDS011;41730;51.960;20.158;2023-05-07T05:13:02;6.30;;;4.30;;
55800;SDS011;41730;51.960;20.158;2023-05-07T05:15:34;6.90;;;4.60;;
55800;SDS011;41730;51.960;20.158;2023-05-07T05:18:05;6.80;;;4.40;;
55800;SDS011;41730;51.960;20.158;2023-05-07T05:20:37;6.30;;;4.00;;
55800;SDS011;41730;51.960;20.158;2023-05-07T05:23:08;6.40;;;3.70;;
55800;SDS011;41730;51.960;20.158;2023-05-07T05:25:40;6.80;;;3.90;;
55800;SDS011;41730;51.960;20.158;2023-05-07T05:28:12;6.80;;;3.80;;
55800;SDS011;41730;51.960;20.158;2023-05-07T05:30:43;5.80;;;3.60;;
55800;SDS011;41730;51.960;20.158;2023-05-07T05:33:15;5.20;;;3.40;;
55800;SDS011;41730;51.960;20.158;2023-05-07T05:35:46;5.90;;;3.30;;
55800;SDS011;41730;51.960;20.158;2023-05-07T05:38:18;5.90;;;3.70;;
55800;SDS011;41730;51.960;20.158;2023-05-07T05:40:50;5.80;;;3.90;;
55800;SDS011;41730;51.960;20.158;2023-05-07T05:43:23;5.30;;;3.70;;
55800;SDS011;41730;51.960;20.158;2023-05-07T05:45:56;5.80;;;3.50;;
55800;SDS011;41730;51.960;20.158;2023-05-07T05:48:29;6.10;;;4.20;;
55800;SDS011;41730;51.960;20.158;2023-05-07T05:51:01;5.90;;;4.20;;
55800;SDS011;41730;51.960;20.158;2023-05-07T05:53:32;8.20;;;4.50;;
55800;SDS011;41730;51.960;20.158;2023-05-07T05:56:04;6.50;;;4.30;;
55800;SDS011;41730;51.960;20.158;2023-05-07T05:58:36;5.70;;;3.60;;
55800;SDS011;41730;51.960;20.158;2023-05-07T06:01:08;6.30;;;3.70;;
55800;SDS011;41730;51.960;20.158;2023-05-07T06:03:40;6.40;;;3.80;;
55800;SDS011;41730;51.960;20.158;2023-05-07T06:06:11;4.40;;;3.20;;
55800;SDS011;41730;51.960;20.158;2023-05-07T06:08:43;5.40;;;3.50;;
55800;SDS011;41730;51.960;20.158;2023-05-07T06:11:15;6.00;;;3.00;;
55800;SDS011;41730;51.960;20.158;2023-05-07T06:13:47;6.00;;;3.40;;
55800;SDS011;41730;51.960;20.158;2023-05-07T06:16:18;6.10;;;3.60;;
55800;SDS011;41730;51.960;20.158;2023-05-07T06:18:50;6.80;;;3.90;;
55800;SDS011;41730;51.960;20.158;2023-05-07T06:21:21;5.30;;;3.70;;
55800;SDS011;41730;51.960;20.158;2023-05-07T06:23:53;7.50;;;4.40;;
55800;SDS011;41730;51.960;20.158;2023-05-07T06:26:25;6.90;;;3.70;;
55800;SDS011;41730;51.960;20.158;2023-05-07T06:28:56;5.30;;;3.40;;
55800;SDS011;41730;51.960;20.158;2023-05-07T06:31:30;4.30;;;3.20;;
55800;SDS011;41730;51.960;20.158;2023-05-07T06:34:01;5.70;;;3.50;;
55800;SDS011;41730;51.960;20.158;2023-05-07T06:36:33;5.30;;;3.60;;
55800;SDS011;41730;51.960;20.158;2023-05-07T06:39:05;4.40;;;3.10;;
55800;SDS011;41730;51.960;20.158;2023-05-07T06:41:36;4.50;;;3.10;;
55800;SDS011;41730;51.960;20.158;2023-05-07T06:44:08;4.70;;;3.30;;
55800;SDS011;41730;51.960;20.158;2023-05-07T06:46:39;5.10;;;3.30;;
55800;SDS011;41730;51.960;20.158;2023-05-07T06:49:11;6.60;;;3.30;;
55800;SDS011;41730;51.960;20.158;2023-05-07T06:51:43;6.10;;;3.60;;
55800;SDS011;41730;51.960;20.158;2023-05-07T06:54:16;5.70;;;3.40;;
55800;SDS011;41730;51.960;20.158;2023-05-07T06:56:48;6.60;;;3.20;;
55800;SDS011;41730;51.960;20.158;2023-05-07T06:59:19;5.80;;;3.40;;
55800;SDS011;41730;51.960;20.158;2023-05-07T07:01:51;4.80;;;3.00;;
55800;SDS011;41730;51.960;20.158;2023-05-07T07:04:22;4.80;;;3.30;;
55800;SDS011;41730;51.960;20.158;2023-05-07T07:06:54;3.60;;;2.40;;
55800;SDS011;41730;51.960;20.158;2023-05-07T07:09:26;4.50;;;2.90;;
55800;SDS011;41730;51.960;20.158;2023-05-07T07:11:57;4.00;;;2.70;;
55800;SDS011;41730;51.960;20.158;2023-05-07T07:14:29;4.30;;;2.90;;
55800;SDS011;41730;51.960;20.158;2023-05-07T07:17:01;4.30;;;2.80;;
55800;SDS011;41730;51.960;20.158;2023-05-07T07:19:33;3.90;;;2.80;;
55800;SDS011;41730;51.960;20.158;2023-05-07T07:22:05;4.60;;;2.80;;
55800;SDS011;41730;51.960;20.158;2023-05-07T07:24:37;4.50;;;2.40;;
55800;SDS011;41730;51.960;20.158;2023-05-07T07:27:09;4.80;;;3.00;;
55800;SDS011;41730;51.960;20.158;2023-05-07T07:29:40;4.70;;;2.50;;
55800;SDS011;41730;51.960;20.158;2023-05-07T07:32:12;6.30;;;3.20;;
55800;SDS011;41730;51.960;20.158;2023-05-07T07:34:44;3.90;;;2.70;;
55800;SDS011;41730;51.960;20.158;2023-05-07T07:37:15;4.70;;;2.50;;
55800;SDS011;41730;51.960;20.158;2023-05-07T07:39:47;5.90;;;2.40;;
55800;SDS011;41730;51.960;20.158;2023-05-07T07:42:19;4.30;;;3.00;;
55800;SDS011;41730;51.960;20.158;2023-05-07T07:44:50;4.70;;;2.60;;
55800;SDS011;41730;51.960;20.158;2023-05-07T07:47:22;4.00;;;2.30;;
55800;SDS011;41730;51.960;20.158;2023-05-07T07:49:54;4.90;;;2.30;;
55800;SDS011;41730;51.960;20.158;2023-05-07T07:52:25;3.10;;;2.50;;
55800;SDS011;41730;51.960;20.158;2023-05-07T07:54:57;3.20;;;2.00;;
55800;SDS011;41730;51.960;20.158;2023-05-07T07:57:29;3.70;;;2.10;;
55800;SDS011;41730;51.960;20.158;2023-05-07T08:00:03;3.00;;;2.10;;
55800;SDS011;41730;51.960;20.158;2023-05-07T08:02:37;4.10;;;1.90;;
55800;SDS011;41730;51.960;20.158;2023-05-07T08:05:09;5.30;;;2.10;;
55800;SDS011;41730;51.960;20.158;2023-05-07T08:07:41;4.40;;;1.80;;
55800;SDS011;41730;51.960;20.158;2023-05-07T08:10:22;3.60;;;1.90;;
55800;SDS011;41730;51.960;20.158;2023-05-07T08:12:54;3.70;;;2.00;;
55800;SDS011;41730;51.960;20.158;2023-05-07T08:15:26;4.40;;;2.30;;
55800;SDS011;41730;51.960;20.158;2023-05-07T08:17:58;4.00;;;2.20;;
55800;SDS011;41730;51.960;20.158;2023-05-07T08:20:30;4.60;;;2.00;;
55800;SDS011;41730;51.960;20.158;2023-05-07T08:23:07;4.90;;;1.90;;
55800;SDS011;41730;51.960;20.158;2023-05-07T08:25:39;3.50;;;2.00;;
55800;SDS011;41730;51.960;20.158;2023-05-07T08:28:12;4.50;;;2.40;;
55800;SDS011;41730;51.960;20.158;2023-05-07T08:30:43;5.40;;;2.20;;
55800;SDS011;41730;51.960;20.158;2023-05-07T08:33:15;3.30;;;2.00;;
55800;SDS011;41730;51.960;20.158;2023-05-07T08:35:47;3.40;;;1.90;;
55800;SDS011;41730;51.960;20.158;2023-05-07T08:38:18;3.10;;;2.00;;
55800;SDS011;41730;51.960;20.158;2023-05-07T08:40:50;3.90;;;2.00;;
55800;SDS011;41730;51.960;20.158;2023-05-07T08:43:22;4.60;;;1.90;;
55800;SDS011;41730;51.960;20.158;2023-05-07T08:45:58;3.40;;;2.10;;
55800;SDS011;41730;51.960;20.158;2023-05-07T08:48:37;4.70;;;2.10;;
55800;SDS011;41730;51.960;20.158;2023-05-07T08:51:12;3.60;;;2.20;;
55800;SDS011;41730;51.960;20.158;2023-05-07T08:53:46;3.10;;;1.80;;
55800;SDS011;41730;51.960;20.158;2023-05-07T08:56:19;4.70;;;2.10;;
55800;SDS011;41730;51.960;20.158;2023-05-07T08:58:50;3.90;;;2.00;;
55800;SDS011;41730;51.960;20.158;2023-05-07T09:01:24;4.40;;;2.00;;
55800;SDS011;41730;51.960;20.158;2023-05-07T09:03:57;4.10;;;2.10;;
55800;SDS011;41730;51.960;20.158;2023-05-07T09:06:28;3.70;;;1.90;;
55800;SDS011;41730;51.960;20.158;2023-05-07T09:09:01;4.20;;;2.00;;
55800;SDS011;41730;51.960;20.158;2023-05-07T09:11:34;3.10;;;1.80;;
55800;SDS011;41730;51.960;20.158;2023-05-07T09:14:06;3.50;;;2.00;;
55800;SDS011;41730;51.960;20.158;2023-05-07T09:16:39;3.50;;;2.40;;
55800;SDS011;41730;51.960;20.158;2023-05-07T09:19:11;3.30;;;2.20;;
55800;SDS011;41730;51.960;20.158;2023-05-07T09:21:43;4.30;;;2.20;;
55800;SDS011;41730;51.960;20.158;2023-05-07T09:24:16;4.20;;;2.00;;
55800;SDS011;41730;51.960;20.158;2023-05-07T09:26:48;4.40;;;2.20;;
55800;SDS011;41730;51.960;20.158;2023-05-07T09:29:20;4.90;;;2.30;;
55800;SDS011;41730;51.960;20.158;2023-05-07T09:31:52;4.10;;;2.20;;
55800;SDS011;41730;51.960;20.158;2023-05-07T09:34:24;2.90;;;2.20;;
55800;SDS011;41730;51.960;20.158;2023-05-07T09:36:55;4.40;;;1.90;;
55800;SDS011;41730;51.960;20.158;2023-05-07T09:39:28;3.70;;;2.30;;
55800;SDS011;41730;51.960;20.158;2023-05-07T09:42:10;6.00;;;3.90;;
55800;SDS011;41730;51.960;20.158;2023-05-07T09:44:43;4.40;;;2.60;;
55800;SDS011;41730;51.960;20.158;2023-05-07T09:47:15;2.70;;;1.80;;
55800;SDS011;41730;51.960;20.158;2023-05-07T09:49:50;2.90;;;1.80;;
55800;SDS011;41730;51.960;20.158;2023-05-07T09:52:28;4.70;;;2.30;;
55800;SDS011;41730;51.960;20.158;2023-05-07T09:55:02;4.40;;;2.30;;
55800;SDS011;41730;51.960;20.158;2023-05-07T09:57:37;4.00;;;2.10;;
55800;SDS011;41730;51.960;20.158;2023-05-07T10:00:12;4.10;;;2.30;;
55800;SDS011;41730;51.960;20.158;2023-05-07T10:02:44;4.60;;;1.80;;
55800;SDS011;41730;51.960;20.158;2023-05-07T10:05:18;4.70;;;2.20;;
55800;SDS011;41730;51.960;20.158;2023-05-07T10:07:51;5.70;;;2.10;;
55800;SDS011;41730;51.960;20.158;2023-05-07T10:10:24;3.90;;;2.20;;
55800;SDS011;41730;51.960;20.158;2023-05-07T10:12:57;4.00;;;2.40;;
55800;SDS011;41730;51.960;20.158;2023-05-07T10:15:30;5.00;;;3.00;;
55800;SDS011;41730;51.960;20.158;2023-05-07T10:18:02;3.50;;;2.10;;
55800;SDS011;41730;51.960;20.158;2023-05-07T10:20:35;4.10;;;2.30;;
55800;SDS011;41730;51.960;20.158;2023-05-07T10:23:08;5.10;;;2.20;;
55800;SDS011;41730;51.960;20.158;2023-05-07T10:25:45;3.80;;;2.20;;
55800;SDS011;41730;51.960;20.158;2023-05-07T10:30:55;3.90;;;2.40;;
55800;SDS011;41730;51.960;20.158;2023-05-07T10:33:33;4.00;;;2.40;;
55800;SDS011;41730;51.960;20.158;2023-05-07T10:36:08;5.00;;;2.50;;
55800;SDS011;41730;51.960;20.158;2023-05-07T10:38:44;3.60;;;2.10;;
55800;SDS011;41730;51.960;20.158;2023-05-07T10:41:18;3.40;;;2.50;;
55800;SDS011;41730;51.960;20.158;2023-05-07T10:43:51;6.30;;;2.50;;
55800;SDS011;41730;51.960;20.158;2023-05-07T10:46:23;3.40;;;2.00;;
55800;SDS011;41730;51.960;20.158;2023-05-07T10:49:11;4.10;;;2.40;;
55800;SDS011;41730;51.960;20.158;2023-05-07T10:51:44;4.00;;;2.20;;
55800;SDS011;41730;51.960;20.158;2023-05-07T10:54:36;3.70;;;2.20;;
55800;SDS011;41730;51.960;20.158;2023-05-07T11:00:40;3.00;;;2.00;;
55800;SDS011;41730;51.960;20.158;2023-05-07T11:03:13;4.80;;;2.50;;
55800;SDS011;41730;51.960;20.158;2023-05-07T11:05:45;3.60;;;1.90;;
55800;SDS011;41730;51.960;20.158;2023-05-07T11:08:17;6.00;;;2.00;;
55800;SDS011;41730;51.960;20.158;2023-05-07T11:10:49;4.50;;;2.30;;
55800;SDS011;41730;51.960;20.158;2023-05-07T11:16:18;3.20;;;2.30;;
55800;SDS011;41730;51.960;20.158;2023-05-07T11:18:52;4.60;;;2.40;;
55800;SDS011;41730;51.960;20.158;2023-05-07T11:21:34;3.50;;;1.90;;
55800;SDS011;41730;51.960;20.158;2023-05-07T11:24:07;3.80;;;2.30;;
55800;SDS011;41730;51.960;20.158;2023-05-07T11:26:44;5.70;;;2.40;;
55800;SDS011;41730;51.960;20.158;2023-05-07T11:29:17;4.70;;;2.20;;
55800;SDS011;41730;51.960;20.158;2023-05-07T11:31:51;6.00;;;2.80;;
55800;SDS011;41730;51.960;20.158;2023-05-07T11:34:24;5.90;;;2.90;;
55800;SDS011;41730;51.960;20.158;2023-05-07T11:36:56;5.20;;;2.70;;
55800;SDS011;41730;51.960;20.158;2023-05-07T11:39:30;4.30;;;2.70;;
55800;SDS011;41730;51.960;20.158;2023-05-07T11:42:05;4.40;;;2.40;;
55800;SDS011;41730;51.960;20.158;2023-05-07T11:44:43;5.40;;;3.00;;
55800;SDS011;41730;51.960;20.158;2023-05-07T11:47:19;5.80;;;2.40;;
55800;SDS011;41730;51.960;20.158;2023-05-07T11:49:52;5.80;;;2.50;;
55800;SDS011;41730;51.960;20.158;2023-05-07T11:52:24;3.40;;;2.00;;
55800;SDS011;41730;51.960;20.158;2023-05-07T11:54:56;5.30;;;2.50;;
55800;SDS011;41730;51.960;20.158;2023-05-07T11:57:29;4.00;;;2.20;;
55800;SDS011;41730;51.960;20.158;2023-05-07T12:00:03;3.90;;;2.20;;
55800;SDS011;41730;51.960;20.158;2023-05-07T12:02:36;6.00;;;2.80;;
55800;SDS011;41730;51.960;20.158;2023-05-07T12:05:10;4.90;;;2.70;;
55800;SDS011;41730;51.960;20.158;2023-05-07T12:07:42;4.20;;;2.30;;
55800;SDS011;41730;51.960;20.158;2023-05-07T12:10:14;4.30;;;2.10;;
55800;SDS011;41730;51.960;20.158;2023-05-07T12:12:47;5.20;;;2.40;;
55800;SDS011;41730;51.960;20.158;2023-05-07T12:15:19;3.50;;;2.30;;
55800;SDS011;41730;51.960;20.158;2023-05-07T12:17:53;5.00;;;2.60;;
55800;SDS011;41730;51.960;20.158;2023-05-07T12:20:25;6.60;;;2.70;;
55800;SDS011;41730;51.960;20.158;2023-05-07T12:22:57;4.70;;;2.90;;
55800;SDS011;41730;51.960;20.158;2023-05-07T12:25:31;5.30;;;2.40;;
55800;SDS011;41730;51.960;20.158;2023-05-07T12:30:36;4.70;;;2.10;;
55800;SDS011;41730;51.960;20.158;2023-05-07T12:33:08;4.70;;;2.20;;
55800;SDS011;41730;51.960;20.158;2023-05-07T12:35:40;4.20;;;2.50;;
55800;SDS011;41730;51.960;20.158;2023-05-07T12:38:13;4.50;;;2.30;;
55800;SDS011;41730;51.960;20.158;2023-05-07T12:40:48;3.20;;;2.10;;
55800;SDS011;41730;51.960;20.158;2023-05-07T12:43:24;6.50;;;2.50;;
55800;SDS011;41730;51.960;20.158;2023-05-07T12:46:00;3.60;;;2.30;;
55800;SDS011;41730;51.960;20.158;2023-05-07T12:48:35;3.60;;;2.40;;
55800;SDS011;41730;51.960;20.158;2023-05-07T12:51:08;3.20;;;2.30;;
55800;SDS011;41730;51.960;20.158;2023-05-07T12:53:42;6.20;;;2.20;;
55800;SDS011;41730;51.960;20.158;2023-05-07T12:56:16;6.60;;;2.80;;
55800;SDS011;41730;51.960;20.158;2023-05-07T12:58:48;4.90;;;2.50;;
55800;SDS011;41730;51.960;20.158;2023-05-07T13:01:20;3.60;;;2.30;;
55800;SDS011;41730;51.960;20.158;2023-05-07T13:03:53;7.50;;;3.00;;
55800;SDS011;41730;51.960;20.158;2023-05-07T13:06:25;5.10;;;3.20;;
55800;SDS011;41730;51.960;20.158;2023-05-07T13:08:57;3.90;;;2.20;;
55800;SDS011;41730;51.960;20.158;2023-05-07T13:11:29;4.20;;;2.10;;
55800;SDS011;41730;51.960;20.158;2023-05-07T13:14:02;5.30;;;2.60;;
55800;SDS011;41730;51.960;20.158;2023-05-07T13:16:34;5.00;;;2.20;;
55800;SDS011;41730;51.960;20.158;2023-05-07T13:19:06;3.50;;;1.80;;
55800;SDS011;41730;51.960;20.158;2023-05-07T13:21:41;4.70;;;2.70;;
55800;SDS011;41730;51.960;20.158;2023-05-07T13:24:13;3.90;;;2.30;;
55800;SDS011;41730;51.960;20.158;2023-05-07T13:26:45;3.40;;;2.30;;
55800;SDS011;41730;51.960;20.158;2023-05-07T13:29:17;4.20;;;2.70;;
55800;SDS011;41730;51.960;20.158;2023-05-07T13:31:49;5.80;;;2.90;;
55800;SDS011;41730;51.960;20.158;2023-05-07T13:34:21;3.60;;;2.40;;
55800;SDS011;41730;51.960;20.158;2023-05-07T13:36:53;5.40;;;2.90;;
55800;SDS011;41730;51.960;20.158;2023-05-07T13:39:25;4.70;;;2.60;;
55800;SDS011;41730;51.960;20.158;2023-05-07T13:41:57;3.90;;;2.10;;
55800;SDS011;41730;51.960;20.158;2023-05-07T13:44:29;3.80;;;2.20;;
55800;SDS011;41730;51.960;20.158;2023-05-07T13:47:01;3.50;;;2.10;;
55800;SDS011;41730;51.960;20.158;2023-05-07T13:49:33;5.30;;;2.10;;
55800;SDS011;41730;51.960;20.158;2023-05-07T13:52:05;3.80;;;2.10;;
55800;SDS011;41730;51.960;20.158;2023-05-07T13:54:37;5.20;;;2.30;;
55800;SDS011;41730;51.960;20.158;2023-05-07T13:57:09;3.00;;;2.10;;
55800;SDS011;41730;51.960;20.158;2023-05-07T13:59:42;4.40;;;2.40;;
55800;SDS011;41730;51.960;20.158;2023-05-07T14:02:14;4.40;;;2.40;;
55800;SDS011;41730;51.960;20.158;2023-05-07T14:04:46;3.90;;;2.20;;
55800;SDS011;41730;51.960;20.158;2023-05-07T14:07:17;6.50;;;3.00;;
55800;SDS011;41730;51.960;20.158;2023-05-07T14:09:49;4.70;;;2.50;;
55800;SDS011;41730;51.960;20.158;2023-05-07T14:12:21;7.50;;;3.30;;
55800;SDS011;41730;51.960;20.158;2023-05-07T14:14:53;5.50;;;2.80;;
55800;SDS011;41730;51.960;20.158;2023-05-07T14:17:24;6.70;;;2.80;;
55800;SDS011;41730;51.960;20.158;2023-05-07T14:19:56;3.70;;;2.20;;
55800;SDS011;41730;51.960;20.158;2023-05-07T14:22:28;3.50;;;2.60;;
55800;SDS011;41730;51.960;20.158;2023-05-07T14:25:04;4.50;;;2.40;;
55800;SDS011;41730;51.960;20.158;2023-05-07T14:27:37;4.60;;;2.10;;
55800;SDS011;41730;51.960;20.158;2023-05-07T14:30:10;4.00;;;1.80;;
55800;SDS011;41730;51.960;20.158;2023-05-07T14:32:42;5.90;;;2.20;;
55800;SDS011;41730;51.960;20.158;2023-05-07T14:35:16;3.20;;;2.20;;
55800;SDS011;41730;51.960;20.158;2023-05-07T14:37:48;4.80;;;2.20;;
55800;SDS011;41730;51.960;20.158;2023-05-07T14:40:20;3.70;;;2.20;;
55800;SDS011;41730;51.960;20.158;2023-05-07T14:42:52;4.90;;;2.90;;
55800;SDS011;41730;51.960;20.158;2023-05-07T14:45:25;4.50;;;2.50;;
55800;SDS011;41730;51.960;20.158;2023-05-07T14:47:56;4.50;;;2.30;;
55800;SDS011;41730;51.960;20.158;2023-05-07T14:50:29;5.90;;;2.80;;
55800;SDS011;41730;51.960;20.158;2023-05-07T14:53:01;4.10;;;2.50;;
55800;SDS011;41730;51.960;20.158;2023-05-07T14:55:32;6.60;;;2.20;;
55800;SDS011;41730;51.960;20.158;2023-05-07T14:58:05;3.90;;;2.60;;
55800;SDS011;41730;51.960;20.158;2023-05-07T15:00:36;5.00;;;2.60;;
55800;SDS011;41730;51.960;20.158;2023-05-07T15:03:09;6.50;;;3.20;;
55800;SDS011;41730;51.960;20.158;2023-05-07T15:05:41;4.70;;;2.70;;
55800;SDS011;41730;51.960;20.158;2023-05-07T15:08:13;4.00;;;2.30;;
55800;SDS011;41730;51.960;20.158;2023-05-07T15:10:45;3.50;;;2.00;;
55800;SDS011;41730;51.960;20.158;2023-05-07T15:13:17;2.40;;;1.70;;
55800;SDS011;41730;51.960;20.158;2023-05-07T15:15:49;4.30;;;1.80;;